sensor_id;sensor_type;location;lat;lon;timestamp;temperature;humidity
70184;DHT22;57554;51.546;6.776;2023-12-07T00:00:37;1.30;78.70
70184;DHT22;57554;51.546;6.776;2023-12-07T00:03:03;1.40;78.60
70184;DHT22;57554;51.546;6.776;2023-12-07T00:05:32;1.30;78.50
70184;DHT22;57554;51.546;6.776;2023-12-07T00:07:58;1.30;78.50
70184;DHT22;57554;51.546;6.776;2023-12-07T00:10:23;1.30;78.40
70184;DHT22;57554;51.546;6.776;2023-12-07T00:12:49;1.30;78.40
70184;DHT22;57554;51.546;6.776;2023-12-07T00:15:15;1.40;78.40
70184;DHT22;57554;51.546;6.776;2023-12-07T00:17:40;1.40;78.30
70184;DHT22;57554;51.546;6.776;2023-12-07T00:20:06;1.40;78.30
70184;DHT22;57554;51.546;6.776;2023-12-07T00:22:32;1.40;78.30
70184;DHT22;57554;51.546;6.776;2023-12-07T00:24:58;1.40;78.40
70184;DHT22;57554;51.546;6.776;2023-12-07T00:27:23;1.40;78.30
70184;DHT22;57554;51.546;6.776;2023-12-07T00:29:49;1.40;78.40
70184;DHT22;57554;51.546;6.776;2023-12-07T00:32:15;1.40;78.40
70184;DHT22;57554;51.546;6.776;2023-12-07T00:34:41;1.40;78.50
70184;DHT22;57554;51.546;6.776;2023-12-07T00:37:06;1.50;78.50
70184;DHT22;57554;51.546;6.776;2023-12-07T00:39:32;1.50;78.40
70184;DHT22;57554;51.546;6.776;2023-12-07T00:41:58;1.50;78.40
70184;DHT22;57554;51.546;6.776;2023-12-07T00:44:23;1.50;78.40
70184;DHT22;57554;51.546;6.776;2023-12-07T00:46:50;1.50;78.40
70184;DHT22;57554;51.546;6.776;2023-12-07T00:49:16;1.50;78.40
70184;DHT22;57554;51.546;6.776;2023-12-07T00:51:41;1.40;78.30
70184;DHT22;57554;51.546;6.776;2023-12-07T00:54:09;1.40;78.40
70184;DHT22;57554;51.546;6.776;2023-12-07T00:56:35;1.50;78.50
70184;DHT22;57554;51.546;6.776;2023-12-07T00:59:02;1.50;78.50
70184;DHT22;57554;51.546;6.776;2023-12-07T01:01:28;1.50;78.50
70184;DHT22;57554;51.546;6.776;2023-12-07T01:03:53;1.40;78.40
70184;DHT22;57554;51.546;6.776;2023-12-07T01:06:22;1.40;78.40
70184;DHT22;57554;51.546;6.776;2023-12-07T01:08:48;1.40;78.30
70184;DHT22;57554;51.546;6.776;2023-12-07T01:11:13;1.30;78.20
70184;DHT22;57554;51.546;6.776;2023-12-07T01:13:39;1.20;78.20
70184;DHT22;57554;51.546;6.776;2023-12-07T01:16:04;1.20;78.30
70184;DHT22;57554;51.546;6.776;2023-12-07T01:18:30;1.10;78.30
70184;DHT22;57554;51.546;6.776;2023-12-07T01:20:55;1.10;78.30
70184;DHT22;57554;51.546;6.776;2023-12-07T01:23:21;1.10;78.30
70184;DHT22;57554;51.546;6.776;2023-12-07T01:25:49;1.10;78.40
70184;DHT22;57554;51.546;6.776;2023-12-07T01:28:15;1.00;78.40
70184;DHT22;57554;51.546;6.776;2023-12-07T01:30:40;1.00;78.30
70184;DHT22;57554;51.546;6.776;2023-12-07T01:33:06;0.90;78.30
70184;DHT22;57554;51.546;6.776;2023-12-07T01:35:31;0.90;78.30
70184;DHT22;57554;51.546;6.776;2023-12-07T01:37:57;0.90;78.30
70184;DHT22;57554;51.546;6.776;2023-12-07T01:40:25;0.90;78.30
70184;DHT22;57554;51.546;6.776;2023-12-07T01:42:52;0.90;78.50
70184;DHT22;57554;51.546;6.776;2023-12-07T01:45:18;0.80;78.40
70184;DHT22;57554;51.546;6.776;2023-12-07T01:47:46;0.80;78.40
70184;DHT22;57554;51.546;6.776;2023-12-07T01:50:13;0.80;78.50
70184;DHT22;57554;51.546;6.776;2023-12-07T01:52:47;0.80;78.70
70184;DHT22;57554;51.546;6.776;2023-12-07T01:55:14;0.80;78.70
70184;DHT22;57554;51.546;6.776;2023-12-07T01:57:41;0.80;78.80
70184;DHT22;57554;51.546;6.776;2023-12-07T02:00:07;0.80;78.60
70184;DHT22;57554;51.546;6.776;2023-12-07T02:02:35;0.80;78.60
70184;DHT22;57554;51.546;6.776;2023-12-07T02:05:01;0.80;78.60
70184;DHT22;57554;51.546;6.776;2023-12-07T02:07:29;0.80;78.60
70184;DHT22;57554;51.546;6.776;2023-12-07T02:09:57;0.80;78.70
70184;DHT22;57554;51.546;6.776;2023-12-07T02:12:23;0.80;78.70
70184;DHT22;57554;51.546;6.776;2023-12-07T02:14:50;0.80;78.80
70184;DHT22;57554;51.546;6.776;2023-12-07T02:17:38;0.90;78.80
70184;DHT22;57554;51.546;6.776;2023-12-07T02:20:21;0.90;78.90
70184;DHT22;57554;51.546;6.776;2023-12-07T02:22:55;0.90;78.80
70184;DHT22;57554;51.546;6.776;2023-12-07T02:25:31;0.80;78.90
70184;DHT22;57554;51.546;6.776;2023-12-07T02:27:57;0.80;78.90
70184;DHT22;57554;51.546;6.776;2023-12-07T02:30:22;0.80;78.80
70184;DHT22;57554;51.546;6.776;2023-12-07T02:32:48;0.80;78.80
70184;DHT22;57554;51.546;6.776;2023-12-07T02:35:14;0.80;78.90
70184;DHT22;57554;51.546;6.776;2023-12-07T02:37:44;0.80;78.90
70184;DHT22;57554;51.546;6.776;2023-12-07T02:40:11;0.70;78.90
70184;DHT22;57554;51.546;6.776;2023-12-07T02:42:40;0.70;79.00
70184;DHT22;57554;51.546;6.776;2023-12-07T02:45:07;0.70;79.10
70184;DHT22;57554;51.546;6.776;2023-12-07T02:47:34;0.70;79.10
70184;DHT22;57554;51.546;6.776;2023-12-07T02:49:59;0.70;79.20
70184;DHT22;57554;51.546;6.776;2023-12-07T02:52:25;0.70;79.20
70184;DHT22;57554;51.546;6.776;2023-12-07T02:54:51;0.70;79.20
70184;DHT22;57554;51.546;6.776;2023-12-07T02:57:18;0.70;79.20
70184;DHT22;57554;51.546;6.776;2023-12-07T02:59:44;0.60;79.30
70184;DHT22;57554;51.546;6.776;2023-12-07T03:02:09;0.60;79.40
70184;DHT22;57554;51.546;6.776;2023-12-07T03:04:35;0.70;79.50
70184;DHT22;57554;51.546;6.776;2023-12-07T03:07:01;0.70;79.60
70184;DHT22;57554;51.546;6.776;2023-12-07T03:09:26;0.70;79.60
70184;DHT22;57554;51.546;6.776;2023-12-07T03:11:52;0.80;79.50
70184;DHT22;57554;51.546;6.776;2023-12-07T03:14:17;0.80;79.50
70184;DHT22;57554;51.546;6.776;2023-12-07T03:16:45;0.90;79.50
70184;DHT22;57554;51.546;6.776;2023-12-07T03:19:10;0.90;79.50
70184;DHT22;57554;51.546;6.776;2023-12-07T03:21:39;1.00;79.40
70184;DHT22;57554;51.546;6.776;2023-12-07T03:24:07;1.00;79.30
70184;DHT22;57554;51.546;6.776;2023-12-07T03:26:33;1.00;79.30
70184;DHT22;57554;51.546;6.776;2023-12-07T03:28:59;1.00;79.40
70184;DHT22;57554;51.546;6.776;2023-12-07T03:31:25;1.00;79.40
70184;DHT22;57554;51.546;6.776;2023-12-07T03:33:50;1.00;79.50
70184;DHT22;57554;51.546;6.776;2023-12-07T03:36:16;1.10;79.50
70184;DHT22;57554;51.546;6.776;2023-12-07T03:38:42;1.10;79.60
70184;DHT22;57554;51.546;6.776;2023-12-07T03:41:08;1.20;79.60
70184;DHT22;57554;51.546;6.776;2023-12-07T03:43:33;1.30;79.50
70184;DHT22;57554;51.546;6.776;2023-12-07T03:45:59;1.30;79.60
70184;DHT22;57554;51.546;6.776;2023-12-07T03:48:25;1.40;79.60
70184;DHT22;57554;51.546;6.776;2023-12-07T03:50:50;1.40;79.60
70184;DHT22;57554;51.546;6.776;2023-12-07T03:53:16;1.50;79.60
70184;DHT22;57554;51.546;6.776;2023-12-07T03:55:42;1.50;79.60
70184;DHT22;57554;51.546;6.776;2023-12-07T03:58:07;1.60;79.60
70184;DHT22;57554;51.546;6.776;2023-12-07T04:00:33;1.60;79.60
70184;DHT22;57554;51.546;6.776;2023-12-07T04:02:58;1.70;79.60
70184;DHT22;57554;51.546;6.776;2023-12-07T04:05:24;1.80;79.60
70184;DHT22;57554;51.546;6.776;2023-12-07T04:07:49;1.80;79.50
70184;DHT22;57554;51.546;6.776;2023-12-07T04:10:15;1.90;79.50
70184;DHT22;57554;51.546;6.776;2023-12-07T04:12:41;1.90;79.60
70184;DHT22;57554;51.546;6.776;2023-12-07T04:15:07;1.90;79.60
70184;DHT22;57554;51.546;6.776;2023-12-07T04:17:32;2.00;79.70
70184;DHT22;57554;51.546;6.776;2023-12-07T04:19:58;2.00;79.60
70184;DHT22;57554;51.546;6.776;2023-12-07T04:22:24;2.00;79.70
70184;DHT22;57554;51.546;6.776;2023-12-07T04:24:49;2.10;79.70
70184;DHT22;57554;51.546;6.776;2023-12-07T04:27:15;2.10;79.70
70184;DHT22;57554;51.546;6.776;2023-12-07T04:29:46;2.20;79.70
70184;DHT22;57554;51.546;6.776;2023-12-07T04:32:12;2.20;79.70
70184;DHT22;57554;51.546;6.776;2023-12-07T04:34:37;2.30;79.70
70184;DHT22;57554;51.546;6.776;2023-12-07T04:37:03;2.30;79.70
70184;DHT22;57554;51.546;6.776;2023-12-07T04:39:29;2.30;79.70
70184;DHT22;57554;51.546;6.776;2023-12-07T04:41:54;2.40;79.80
70184;DHT22;57554;51.546;6.776;2023-12-07T04:44:20;2.40;79.80
70184;DHT22;57554;51.546;6.776;2023-12-07T04:46:45;2.40;79.80
70184;DHT22;57554;51.546;6.776;2023-12-07T04:49:13;2.50;79.80
70184;DHT22;57554;51.546;6.776;2023-12-07T04:51:39;2.50;79.80
70184;DHT22;57554;51.546;6.776;2023-12-07T04:54:07;2.50;79.70
70184;DHT22;57554;51.546;6.776;2023-12-07T04:56:32;2.60;79.80
70184;DHT22;57554;51.546;6.776;2023-12-07T04:58:58;2.60;79.80
70184;DHT22;57554;51.546;6.776;2023-12-07T05:01:23;2.70;79.80
70184;DHT22;57554;51.546;6.776;2023-12-07T05:03:49;2.60;79.70
70184;DHT22;57554;51.546;6.776;2023-12-07T05:06:14;2.60;79.70
70184;DHT22;57554;51.546;6.776;2023-12-07T05:08:40;2.60;79.70
70184;DHT22;57554;51.546;6.776;2023-12-07T05:11:05;2.60;79.90
70184;DHT22;57554;51.546;6.776;2023-12-07T05:13:32;2.60;80.10
70184;DHT22;57554;51.546;6.776;2023-12-07T05:15:59;2.60;80.10
70184;DHT22;57554;51.546;6.776;2023-12-07T05:18:25;2.70;80.10
70184;DHT22;57554;51.546;6.776;2023-12-07T05:20:50;2.70;80.10
70184;DHT22;57554;51.546;6.776;2023-12-07T05:23:16;2.70;80.00
70184;DHT22;57554;51.546;6.776;2023-12-07T05:25:43;2.70;80.00
70184;DHT22;57554;51.546;6.776;2023-12-07T05:28:08;2.80;80.10
70184;DHT22;57554;51.546;6.776;2023-12-07T05:30:35;2.80;80.00
70184;DHT22;57554;51.546;6.776;2023-12-07T05:33:01;2.90;80.00
70184;DHT22;57554;51.546;6.776;2023-12-07T05:35:27;2.90;79.90
70184;DHT22;57554;51.546;6.776;2023-12-07T05:37:53;3.00;79.80
70184;DHT22;57554;51.546;6.776;2023-12-07T05:40:18;3.00;79.80
70184;DHT22;57554;51.546;6.776;2023-12-07T05:42:44;3.00;79.80
70184;DHT22;57554;51.546;6.776;2023-12-07T05:45:10;3.00;79.80
70184;DHT22;57554;51.546;6.776;2023-12-07T05:47:37;3.10;79.80
70184;DHT22;57554;51.546;6.776;2023-12-07T05:50:03;3.10;79.80
70184;DHT22;57554;51.546;6.776;2023-12-07T05:52:29;3.10;79.80
70184;DHT22;57554;51.546;6.776;2023-12-07T05:54:55;3.20;79.80
70184;DHT22;57554;51.546;6.776;2023-12-07T05:57:20;3.20;79.90
70184;DHT22;57554;51.546;6.776;2023-12-07T05:59:46;3.20;79.80
70184;DHT22;57554;51.546;6.776;2023-12-07T06:02:11;3.30;79.80
70184;DHT22;57554;51.546;6.776;2023-12-07T06:04:37;3.30;79.90
70184;DHT22;57554;51.546;6.776;2023-12-07T06:07:03;3.30;79.80
70184;DHT22;57554;51.546;6.776;2023-12-07T06:09:29;3.30;79.90
70184;DHT22;57554;51.546;6.776;2023-12-07T06:11:55;3.30;79.90
70184;DHT22;57554;51.546;6.776;2023-12-07T06:14:20;3.40;79.90
70184;DHT22;57554;51.546;6.776;2023-12-07T06:16:48;3.40;79.90
70184;DHT22;57554;51.546;6.776;2023-12-07T06:19:14;3.40;80.00
70184;DHT22;57554;51.546;6.776;2023-12-07T06:21:39;3.40;79.90
70184;DHT22;57554;51.546;6.776;2023-12-07T06:24:05;3.40;80.00
70184;DHT22;57554;51.546;6.776;2023-12-07T06:26:30;3.50;80.00
70184;DHT22;57554;51.546;6.776;2023-12-07T06:28:56;3.50;80.00
70184;DHT22;57554;51.546;6.776;2023-12-07T06:31:22;3.50;80.00
70184;DHT22;57554;51.546;6.776;2023-12-07T06:33:48;3.50;79.90
70184;DHT22;57554;51.546;6.776;2023-12-07T06:36:23;3.50;79.80
70184;DHT22;57554;51.546;6.776;2023-12-07T06:38:49;3.50;79.90
70184;DHT22;57554;51.546;6.776;2023-12-07T06:41:15;3.50;79.80
70184;DHT22;57554;51.546;6.776;2023-12-07T06:43:44;3.50;79.80
70184;DHT22;57554;51.546;6.776;2023-12-07T06:46:13;3.50;79.80
70184;DHT22;57554;51.546;6.776;2023-12-07T06:48:40;3.50;79.80
70184;DHT22;57554;51.546;6.776;2023-12-07T06:51:06;3.40;79.80
70184;DHT22;57554;51.546;6.776;2023-12-07T06:53:32;3.40;79.90
70184;DHT22;57554;51.546;6.776;2023-12-07T06:55:57;3.40;79.90
70184;DHT22;57554;51.546;6.776;2023-12-07T06:58:23;3.40;80.00
70184;DHT22;57554;51.546;6.776;2023-12-07T07:00:49;3.40;80.00
70184;DHT22;57554;51.546;6.776;2023-12-07T07:03:15;3.40;80.00
70184;DHT22;57554;51.546;6.776;2023-12-07T07:05:41;3.40;80.00
70184;DHT22;57554;51.546;6.776;2023-12-07T07:08:06;3.50;80.00
70184;DHT22;57554;51.546;6.776;2023-12-07T07:10:33;3.50;80.00
70184;DHT22;57554;51.546;6.776;2023-12-07T07:13:00;3.40;80.00
70184;DHT22;57554;51.546;6.776;2023-12-07T07:15:28;3.40;79.90
70184;DHT22;57554;51.546;6.776;2023-12-07T07:17:57;3.40;80.00
70184;DHT22;57554;51.546;6.776;2023-12-07T07:20:22;3.40;79.90
70184;DHT22;57554;51.546;6.776;2023-12-07T07:22:48;3.50;79.90
70184;DHT22;57554;51.546;6.776;2023-12-07T07:25:14;3.40;79.80
70184;DHT22;57554;51.546;6.776;2023-12-07T07:27:41;3.40;79.80
70184;DHT22;57554;51.546;6.776;2023-12-07T07:30:11;3.40;79.80
70184;DHT22;57554;51.546;6.776;2023-12-07T07:32:37;3.40;79.80
70184;DHT22;57554;51.546;6.776;2023-12-07T07:35:02;3.30;79.80
70184;DHT22;57554;51.546;6.776;2023-12-07T07:37:28;3.30;79.80
70184;DHT22;57554;51.546;6.776;2023-12-07T07:39:54;3.30;79.80
70184;DHT22;57554;51.546;6.776;2023-12-07T07:42:19;3.30;79.80
70184;DHT22;57554;51.546;6.776;2023-12-07T07:44:45;3.20;79.80
70184;DHT22;57554;51.546;6.776;2023-12-07T07:47:10;3.20;79.80
70184;DHT22;57554;51.546;6.776;2023-12-07T07:49:36;3.10;79.80
70184;DHT22;57554;51.546;6.776;2023-12-07T07:52:02;3.00;80.00
70184;DHT22;57554;51.546;6.776;2023-12-07T07:54:28;3.00;80.20
70184;DHT22;57554;51.546;6.776;2023-12-07T07:56:54;3.00;80.40
70184;DHT22;57554;51.546;6.776;2023-12-07T07:59:19;3.00;80.50
70184;DHT22;57554;51.546;6.776;2023-12-07T08:01:45;3.10;80.50
70184;DHT22;57554;51.546;6.776;2023-12-07T08:04:12;3.10;80.50
70184;DHT22;57554;51.546;6.776;2023-12-07T08:06:38;3.20;80.50
70184;DHT22;57554;51.546;6.776;2023-12-07T08:09:03;3.20;80.50
70184;DHT22;57554;51.546;6.776;2023-12-07T08:11:29;3.20;80.50
70184;DHT22;57554;51.546;6.776;2023-12-07T08:13:55;3.30;80.50
70184;DHT22;57554;51.546;6.776;2023-12-07T08:16:21;3.30;80.40
70184;DHT22;57554;51.546;6.776;2023-12-07T08:18:47;3.30;80.40
70184;DHT22;57554;51.546;6.776;2023-12-07T08:21:20;3.40;80.40
70184;DHT22;57554;51.546;6.776;2023-12-07T08:23:46;3.40;80.30
70184;DHT22;57554;51.546;6.776;2023-12-07T08:26:11;3.30;80.30
70184;DHT22;57554;51.546;6.776;2023-12-07T08:28:40;3.40;80.20
70184;DHT22;57554;51.546;6.776;2023-12-07T08:31:05;3.30;80.20
70184;DHT22;57554;51.546;6.776;2023-12-07T08:33:32;3.30;80.30
70184;DHT22;57554;51.546;6.776;2023-12-07T08:35:59;3.30;80.30
70184;DHT22;57554;51.546;6.776;2023-12-07T08:38:25;3.30;80.40
70184;DHT22;57554;51.546;6.776;2023-12-07T08:40:51;3.40;80.40
70184;DHT22;57554;51.546;6.776;2023-12-07T08:43:20;3.40;80.40
70184;DHT22;57554;51.546;6.776;2023-12-07T08:45:46;3.40;80.40
70184;DHT22;57554;51.546;6.776;2023-12-07T08:48:11;3.40;80.30
70184;DHT22;57554;51.546;6.776;2023-12-07T08:50:37;3.40;80.30
70184;DHT22;57554;51.546;6.776;2023-12-07T08:53:03;3.40;80.40
70184;DHT22;57554;51.546;6.776;2023-12-07T08:55:28;3.40;80.60
70184;DHT22;57554;51.546;6.776;2023-12-07T08:57:55;3.40;80.70
70184;DHT22;57554;51.546;6.776;2023-12-07T09:00:25;3.50;80.80
70184;DHT22;57554;51.546;6.776;2023-12-07T09:02:51;3.60;80.80
70184;DHT22;57554;51.546;6.776;2023-12-07T09:05:17;3.60;80.70
70184;DHT22;57554;51.546;6.776;2023-12-07T09:07:43;3.70;80.70
70184;DHT22;57554;51.546;6.776;2023-12-07T09:10:09;3.70;80.60
70184;DHT22;57554;51.546;6.776;2023-12-07T09:12:35;3.70;80.60
70184;DHT22;57554;51.546;6.776;2023-12-07T09:15:04;3.80;80.50
70184;DHT22;57554;51.546;6.776;2023-12-07T09:17:29;3.80;80.60
70184;DHT22;57554;51.546;6.776;2023-12-07T09:19:55;3.80;80.60
70184;DHT22;57554;51.546;6.776;2023-12-07T09:22:21;3.90;80.50
70184;DHT22;57554;51.546;6.776;2023-12-07T09:24:46;3.90;80.50
70184;DHT22;57554;51.546;6.776;2023-12-07T09:27:15;4.00;80.50
70184;DHT22;57554;51.546;6.776;2023-12-07T09:29:43;4.00;80.50
70184;DHT22;57554;51.546;6.776;2023-12-07T09:32:08;4.10;80.50
70184;DHT22;57554;51.546;6.776;2023-12-07T09:34:34;4.20;80.50
70184;DHT22;57554;51.546;6.776;2023-12-07T09:37:11;4.30;80.40
70184;DHT22;57554;51.546;6.776;2023-12-07T09:39:37;4.40;80.40
70184;DHT22;57554;51.546;6.776;2023-12-07T09:42:02;4.40;80.30
70184;DHT22;57554;51.546;6.776;2023-12-07T09:44:28;4.50;80.20
70184;DHT22;57554;51.546;6.776;2023-12-07T09:46:54;4.60;80.20
70184;DHT22;57554;51.546;6.776;2023-12-07T09:49:21;4.60;80.00
70184;DHT22;57554;51.546;6.776;2023-12-07T09:51:47;4.60;79.80
70184;DHT22;57554;51.546;6.776;2023-12-07T09:54:13;4.50;79.90
70184;DHT22;57554;51.546;6.776;2023-12-07T09:56:39;4.60;80.10
70184;DHT22;57554;51.546;6.776;2023-12-07T09:59:05;4.60;80.10
70184;DHT22;57554;51.546;6.776;2023-12-07T10:01:32;4.70;80.20
70184;DHT22;57554;51.546;6.776;2023-12-07T10:04:19;4.80;80.20
70184;DHT22;57554;51.546;6.776;2023-12-07T10:06:46;5.00;80.20
70184;DHT22;57554;51.546;6.776;2023-12-07T10:09:13;5.00;80.00
70184;DHT22;57554;51.546;6.776;2023-12-07T10:11:39;5.10;79.90
70184;DHT22;57554;51.546;6.776;2023-12-07T10:14:06;5.20;79.70
70184;DHT22;57554;51.546;6.776;2023-12-07T10:16:33;5.30;79.50
70184;DHT22;57554;51.546;6.776;2023-12-07T10:19:13;5.30;79.40
70184;DHT22;57554;51.546;6.776;2023-12-07T10:21:40;5.40;79.40
70184;DHT22;57554;51.546;6.776;2023-12-07T10:24:06;5.50;79.30
70184;DHT22;57554;51.546;6.776;2023-12-07T10:26:32;5.50;79.20
70184;DHT22;57554;51.546;6.776;2023-12-07T10:28:57;5.60;79.10
70184;DHT22;57554;51.546;6.776;2023-12-07T10:31:25;5.60;78.90
70184;DHT22;57554;51.546;6.776;2023-12-07T10:33:51;5.60;78.70
70184;DHT22;57554;51.546;6.776;2023-12-07T10:36:17;5.60;78.60
70184;DHT22;57554;51.546;6.776;2023-12-07T10:38:43;5.60;78.50
70184;DHT22;57554;51.546;6.776;2023-12-07T10:41:12;5.70;78.30
70184;DHT22;57554;51.546;6.776;2023-12-07T10:43:42;5.70;78.30
70184;DHT22;57554;51.546;6.776;2023-12-07T10:46:09;5.70;78.40
70184;DHT22;57554;51.546;6.776;2023-12-07T10:48:35;5.80;78.10
70184;DHT22;57554;51.546;6.776;2023-12-07T10:51:06;5.80;77.90
70184;DHT22;57554;51.546;6.776;2023-12-07T10:53:37;5.80;77.90
70184;DHT22;57554;51.546;6.776;2023-12-07T10:56:09;5.80;77.80
70184;DHT22;57554;51.546;6.776;2023-12-07T10:58:36;5.80;77.80
70184;DHT22;57554;51.546;6.776;2023-12-07T11:01:03;5.90;77.60
70184;DHT22;57554;51.546;6.776;2023-12-07T11:03:29;5.90;77.40
70184;DHT22;57554;51.546;6.776;2023-12-07T11:05:55;6.00;77.30
70184;DHT22;57554;51.546;6.776;2023-12-07T11:08:28;6.00;77.20
70184;DHT22;57554;51.546;6.776;2023-12-07T11:16:34;6.30;76.60
70184;DHT22;57554;51.546;6.776;2023-12-07T11:19:00;6.30;76.10
70184;DHT22;57554;51.546;6.776;2023-12-07T11:21:26;6.30;75.90
70184;DHT22;57554;51.546;6.776;2023-12-07T11:23:53;6.30;75.70
70184;DHT22;57554;51.546;6.776;2023-12-07T11:26:23;6.30;75.40
70184;DHT22;57554;51.546;6.776;2023-12-07T11:28:50;6.20;75.00
70184;DHT22;57554;51.546;6.776;2023-12-07T11:31:16;6.20;74.80
70184;DHT22;57554;51.546;6.776;2023-12-07T11:33:42;6.20;74.60
70184;DHT22;57554;51.546;6.776;2023-12-07T11:36:09;6.20;74.30
70184;DHT22;57554;51.546;6.776;2023-12-07T11:38:38;6.20;74.40
70184;DHT22;57554;51.546;6.776;2023-12-07T11:41:04;6.30;74.40
70184;DHT22;57554;51.546;6.776;2023-12-07T11:45:59;6.50;74.20
70184;DHT22;57554;51.546;6.776;2023-12-07T11:48:25;6.60;74.00
70184;DHT22;57554;51.546;6.776;2023-12-07T11:50:54;6.70;74.10
70184;DHT22;57554;51.546;6.776;2023-12-07T11:53:22;6.80;74.00
